Time;durP1;ratioP1;P1;durP2;ratioP2;P2;SDS_P1;SDS_P2;PMS_P1;PMS_P2;Temp;Humidity;BMP_temperature;BMP_pressure;BME280_temperature;BME280_humidity;BME280_pressure;Samples;Min_cycle;Max_cycle;Signal;HPM_P1;HPM_P2
2023/03/15 00:00:09;;;;;;;36.15;16.88;;;5.90;99.90;;;;;;4973418;28;20050;-80
2023/03/15 00:02:35;;;;;;;67.88;25.77;;;5.80;99.90;;;;;;4973614;28;20080;-81
2023/03/15 00:05:01;;;;;;;23.33;11.38;;;5.60;99.90;;;;;;4973647;28;20026;-79
2023/03/15 00:07:27;;;;;;;17.05;8.68;;;5.30;99.90;;;;;;4974576;28;20035;-79
2023/03/15 00:09:53;;;;;;;58.25;23.80;;;5.10;99.90;;;;;;4973637;28;20023;-80
2023/03/15 00:12:21;;;;;;;21.00;10.65;;;5.00;99.90;;;;;;4973113;28;20034;-81
2023/03/15 00:14:48;;;;;;;44.17;19.95;;;4.80;99.90;;;;;;4973463;28;20030;-79
2023/03/15 00:17:14;;;;;;;26.65;13.10;;;4.80;99.90;;;;;;4974452;28;20019;-81
2023/03/15 00:19:39;;;;;;;43.25;18.33;;;4.60;99.90;;;;;;4973577;28;20037;-81
2023/03/15 00:22:05;;;;;;;31.23;14.95;;;4.50;99.90;;;;;;4973334;28;20126;-81
2023/03/15 00:24:30;;;;;;;29.92;15.50;;;4.40;99.90;;;;;;4974523;28;20074;-78
2023/03/15 00:26:56;;;;;;;10.93;8.07;;;4.30;99.90;;;;;;4973179;28;20038;-78
2023/03/15 00:29:22;;;;;;;14.93;8.25;;;4.20;99.90;;;;;;4973113;28;20500;-78
2023/03/15 00:31:48;;;;;;;17.35;9.90;;;4.00;99.90;;;;;;4974296;28;20117;-80
2023/03/15 00:34:14;;;;;;;12.10;6.97;;;3.80;99.90;;;;;;4973261;28;20030;-79
2023/03/15 00:36:42;;;;;;;1.70;1.60;;;3.70;99.90;;;;;;4974368;28;20027;-78
2023/03/15 00:39:08;;;;;;;4.22;2.13;;;3.40;99.90;;;;;;4974378;28;20030;-79
2023/03/15 00:41:34;;;;;;;5.28;3.42;;;3.30;99.90;;;;;;4974256;28;20023;-79
2023/03/15 00:44:00;;;;;;;8.45;5.68;;;3.20;99.90;;;;;;4974372;28;20150;-78
2023/03/15 00:46:25;;;;;;;2.95;2.72;;;3.10;99.90;;;;;;4973089;28;20033;-79
2023/03/15 00:48:51;;;;;;;9.48;7.07;;;3.00;99.90;;;;;;4972785;28;20050;-82
2023/03/15 00:51:22;;;;;;;5.38;1.98;;;2.90;99.90;;;;;;4974006;28;20511;-82
2023/03/15 00:53:49;;;;;;;1.88;1.75;;;2.80;99.90;;;;;;4972918;28;20042;-80
2023/03/15 00:56:26;;;;;;;3.67;2.58;;;2.80;99.90;;;;;;4973645;28;20090;-82
2023/03/15 00:58:52;;;;;;;2.97;2.78;;;2.80;99.90;;;;;;4972725;28;20034;-80
2023/03/15 01:01:24;;;;;;;2.08;1.98;;;2.80;99.90;;;;;;4974129;28;20043;-78
2023/03/15 01:03:50;;;;;;;2.17;2.05;;;2.70;99.90;;;;;;4974192;28;20444;-80
2023/03/15 01:06:24;;;;;;;2.17;2.08;;;2.70;99.90;;;;;;4972750;28;20031;-79
2023/03/15 01:08:54;;;;;;;2.35;2.22;;;2.70;99.90;;;;;;4972703;28;20022;-80
2023/03/15 01:11:23;;;;;;;2.80;2.60;;;2.70;99.90;;;;;;4974212;28;20031;-79
2023/03/15 01:13:51;;;;;;;3.00;2.80;;;2.70;99.90;;;;;;4976536;28;20121;-81
2023/03/15 01:16:16;;;;;;;2.15;2.05;;;2.60;99.90;;;;;;4976354;28;20101;-81
2023/03/15 01:18:43;;;;;;;2.45;2.25;;;2.70;99.90;;;;;;4976408;28;20110;-79
2023/03/15 01:21:10;;;;;;;2.00;1.90;;;2.70;99.90;;;;;;4976347;28;20117;-80
2023/03/15 01:23:36;;;;;;;2.03;1.92;;;2.60;99.90;;;;;;4977739;28;20101;-81
2023/03/15 01:26:04;;;;;;;1.67;1.58;;;2.40;99.90;;;;;;4976402;28;20063;-80
2023/03/15 01:28:29;;;;;;;3.17;2.97;;;2.50;99.90;;;;;;4977855;28;20098;-81
2023/03/15 01:30:55;;;;;;;2.78;2.58;;;2.50;99.90;;;;;;4975880;28;20169;-81
2023/03/15 01:33:21;;;;;;;2.17;2.03;;;2.50;99.90;;;;;;4976414;28;20027;-81
2023/03/15 01:35:47;;;;;;;2.70;2.50;;;2.40;99.90;;;;;;4977307;28;20476;-80
2023/03/15 01:38:13;;;;;;;2.33;2.15;;;2.40;99.90;;;;;;4975964;28;20026;-80
2023/03/15 01:40:44;;;;;;;5.05;2.72;;;2.30;99.90;;;;;;4977173;28;20026;-79
2023/03/15 01:43:22;;;;;;;5.00;2.40;;;2.30;99.90;;;;;;4976295;28;20117;-81
2023/03/15 01:46:01;;;;;;;3.65;2.85;;;2.20;99.90;;;;;;4977204;28;20373;-80
2023/03/15 01:48:31;;;;;;;2.63;2.42;;;2.20;99.90;;;;;;4975579;28;20117;-81
2023/03/15 01:50:58;;;;;;;2.70;2.35;;;2.20;99.90;;;;;;4975653;28;20503;-81
2023/03/15 01:53:26;;;;;;;2.83;2.50;;;2.30;99.90;;;;;;4977051;28;20499;-81
2023/03/15 01:55:53;;;;;;;3.60;2.42;;;2.20;99.90;;;;;;4975954;28;20081;-79
2023/03/15 01:58:24;;;;;;;3.17;2.92;;;2.20;99.90;;;;;;4975701;28;20388;-80
2023/03/15 02:00:54;;;;;;;2.92;2.72;;;2.20;99.90;;;;;;4975922;28;20366;-81
2023/03/15 02:03:29;;;;;;;3.90;3.15;;;2.20;99.90;;;;;;4975836;28;20055;-80
2023/03/15 02:06:03;;;;;;;3.13;2.90;;;2.10;99.90;;;;;;4975789;28;20085;-80
2023/03/15 02:08:34;;;;;;;4.07;3.42;;;2.10;99.90;;;;;;4976974;28;20023;-80
2023/03/15 02:11:02;;;;;;;4.78;3.85;;;2.10;99.90;;;;;;4976730;28;20073;-79
2023/03/15 02:13:30;;;;;;;4.40;3.58;;;2.10;99.90;;;;;;4975684;28;20027;-79
2023/03/15 02:15:56;;;;;;;7.50;3.30;;;2.00;99.90;;;;;;4975247;28;20026;-79
2023/03/15 02:18:22;;;;;;;6.28;4.22;;;2.00;99.90;;;;;;4976529;28;20057;-78
2023/03/15 02:21:02;;;;;;;5.53;4.38;;;2.00;99.90;;;;;;4975274;28;20035;-78
2023/03/15 02:23:30;;;;;;;7.88;4.97;;;2.10;99.90;;;;;;4975572;28;20440;-79
2023/03/15 02:26:14;;;;;;;4.90;3.17;;;2.10;99.90;;;;;;4975292;28;20027;-79
2023/03/15 02:28:41;;;;;;;9.98;4.05;;;2.10;99.90;;;;;;4975283;28;20031;-80
2023/03/15 02:31:07;;;;;;;11.07;4.22;;;2.10;99.90;;;;;;4974848;28;20085;-78
2023/03/15 02:33:55;;;;;;;5.90;4.20;;;2.00;99.90;;;;;;4976329;28;20057;-80
2023/03/15 02:36:26;;;;;;;5.30;4.07;;;2.10;99.90;;;;;;4976465;28;20082;-80
2023/03/15 02:38:53;;;;;;;7.07;4.15;;;2.10;99.90;;;;;;4976224;28;20030;-78
2023/03/15 02:41:41;;;;;;;5.70;4.30;;;2.10;99.90;;;;;;4976170;28;20086;-77
2023/03/15 02:44:10;;;;;;;8.07;3.38;;;2.10;99.90;;;;;;4974949;28;20019;-77
2023/03/15 02:46:36;;;;;;;6.55;3.70;;;2.00;99.90;;;;;;4974911;28;20106;-79
2023/03/15 02:49:03;;;;;;;10.50;3.60;;;2.00;99.90;;;;;;4975012;28;20046;-78
2023/03/15 02:51:29;;;;;;;7.35;3.58;;;2.00;99.90;;;;;;4975904;28;20121;-78
2023/03/15 02:53:55;;;;;;;6.50;4.30;;;2.00;99.90;;;;;;4975760;28;20106;-78
2023/03/15 02:56:21;;;;;;;4.28;3.45;;;2.00;99.90;;;;;;4973820;28;20509;-78
2023/03/15 02:58:46;;;;;;;7.20;3.40;;;2.00;99.90;;;;;;4976275;28;20026;-78
2023/03/15 03:01:16;;;;;;;5.15;4.25;;;2.00;99.90;;;;;;4974852;28;20022;-79
2023/03/15 03:03:44;;;;;;;9.13;5.25;;;2.00;99.90;;;;;;4974522;28;20051;-79
2023/03/15 03:06:11;;;;;;;6.72;3.30;;;2.00;99.90;;;;;;4975708;28;20062;-77
2023/03/15 03:08:37;;;;;;;6.63;3.35;;;2.00;99.90;;;;;;4975592;28;20033;-79
2023/03/15 03:11:04;;;;;;;8.07;4.03;;;2.00;99.90;;;;;;4975595;28;20393;-78
2023/03/15 03:13:30;;;;;;;5.68;3.42;;;2.00;99.90;;;;;;4975543;28;20026;-78
2023/03/15 03:15:58;;;;;;;6.55;3.17;;;2.00;99.90;;;;;;4974256;28;20023;-78
2023/03/15 03:18:28;;;;;;;8.80;4.20;;;2.00;99.90;;;;;;4975505;28;20026;-78
2023/03/15 03:20:58;;;;;;;7.28;3.45;;;2.00;99.90;;;;;;4975416;28;20071;-78
2023/03/15 03:23:26;;;;;;;7.80;3.38;;;2.10;99.90;;;;;;4975592;28;20046;-78
2023/03/15 03:25:53;;;;;;;8.93;3.70;;;2.00;99.90;;;;;;4974112;28;20073;-78
2023/03/15 03:28:19;;;;;;;8.57;3.58;;;2.00;99.90;;;;;;4973706;28;20380;-78
2023/03/15 03:30:45;;;;;;;4.70;4.18;;;2.00;99.90;;;;;;4974784;28;20042;-79
2023/03/15 03:33:11;;;;;;;13.10;6.32;;;2.00;99.90;;;;;;4974002;28;20030;-78
2023/03/15 03:35:36;;;;;;;11.80;6.03;;;2.00;99.90;;;;;;4973576;28;20078;-78
2023/03/15 03:38:02;;;;;;;6.70;4.95;;;2.00;99.90;;;;;;4973924;28;20018;-79
2023/03/15 03:40:28;;;;;;;5.45;4.22;;;2.00;99.90;;;;;;4973827;28;20058;-79
2023/03/15 03:42:53;;;;;;;9.90;4.65;;;1.90;99.90;;;;;;4973828;28;20029;-78
2023/03/15 03:45:19;;;;;;;8.10;4.30;;;1.90;99.90;;;;;;4974955;28;20030;-78
2023/03/15 03:47:44;;;;;;;12.98;5.45;;;1.90;99.90;;;;;;4973536;28;20049;-78
2023/03/15 03:50:10;;;;;;;13.23;6.13;;;1.80;99.90;;;;;;4975009;28;20023;-78
2023/03/15 03:52:36;;;;;;;10.07;4.82;;;1.70;99.90;;;;;;4974865;28;20035;-79
2023/03/15 03:55:02;;;;;;;6.65;3.63;;;1.70;99.90;;;;;;4973734;28;20076;-78
2023/03/15 03:57:28;;;;;;;9.82;6.05;;;1.70;99.90;;;;;;4974819;28;20026;-78
2023/03/15 03:59:53;;;;;;;6.50;4.13;;;1.70;99.90;;;;;;4974814;28;20034;-78
2023/03/15 04:02:19;;;;;;;8.68;4.68;;;1.70;99.90;;;;;;4973457;28;20567;-80
2023/03/15 04:04:49;;;;;;;7.15;3.90;;;1.70;99.90;;;;;;4974882;28;20019;-79
2023/03/15 04:07:14;;;;;;;5.15;3.95;;;1.70;99.90;;;;;;4974697;28;20027;-78
2023/03/15 04:09:40;;;;;;;9.48;4.70;;;1.60;99.90;;;;;;4974724;28;20038;-79
2023/03/15 04:12:06;;;;;;;12.65;6.40;;;1.60;99.90;;;;;;4973257;28;20485;-78
2023/03/15 04:14:32;;;;;;;7.53;4.55;;;1.60;99.90;;;;;;4973370;28;20023;-79
2023/03/15 04:16:57;;;;;;;8.85;4.70;;;1.60;99.90;;;;;;4973374;28;20019;-79
2023/03/15 04:19:23;;;;;;;10.95;4.57;;;1.60;99.90;;;;;;4973354;28;20545;-79
2023/03/15 04:21:51;;;;;;;11.20;4.32;;;1.60;99.90;;;;;;4974448;28;20046;-78
2023/03/15 04:24:16;;;;;;;11.85;4.55;;;1.60;99.90;;;;;;4979766;28;20045;-78
2023/03/15 04:26:42;;;;;;;9.48;4.47;;;1.60;99.90;;;;;;4992579;28;20468;-78
2023/03/15 04:29:10;;;;;;;7.80;3.80;;;1.60;99.90;;;;;;4992534;28;20026;-79
2023/03/15 04:31:36;;;;;;;9.38;4.70;;;1.60;99.90;;;;;;4992567;28;20477;-79
2023/03/15 04:34:03;;;;;;;7.38;4.13;;;1.50;99.90;;;;;;4992635;28;20018;-79
2023/03/15 04:36:28;;;;;;;9.93;3.83;;;1.50;99.90;;;;;;4993897;28;20033;-79
2023/03/15 04:39:04;;;;;;;4.47;4.05;;;1.50;99.90;;;;;;4992433;28;20097;-79
2023/03/15 04:41:31;;;;;;;6.65;3.83;;;1.60;99.90;;;;;;4993702;28;20015;-78
2023/03/15 04:43:56;;;;;;;5.20;3.30;;;1.60;99.90;;;;;;4993781;28;20026;-80
2023/03/15 04:46:22;;;;;;;9.63;4.22;;;1.60;99.90;;;;;;4976375;28;20042;-78
2023/03/15 04:48:47;;;;;;;11.45;4.55;;;1.60;99.90;;;;;;4977113;28;20050;-77
2023/03/15 04:51:13;;;;;;;9.68;4.28;;;1.60;99.90;;;;;;4978228;28;20085;-77
2023/03/15 04:53:38;;;;;;;9.00;4.20;;;1.60;99.90;;;;;;4976840;28;20118;-78
2023/03/15 04:56:05;;;;;;;9.48;3.80;;;1.50;99.90;;;;;;4978050;28;20022;-78
2023/03/15 04:58:31;;;;;;;7.45;3.97;;;1.60;99.90;;;;;;4976802;28;20030;-77
2023/03/15 05:00:56;;;;;;;9.15;4.40;;;1.60;99.90;;;;;;4976817;28;20117;-79
2023/03/15 05:03:22;;;;;;;9.98;3.35;;;1.60;99.90;;;;;;4976712;28;20031;-81
2023/03/15 05:05:48;;;;;;;6.00;3.55;;;1.60;99.90;;;;;;4976454;28;20019;-81
2023/03/15 05:08:14;;;;;;;9.02;3.97;;;1.60;99.90;;;;;;4976726;28;20106;-77
2023/03/15 05:10:39;;;;;;;8.40;3.83;;;1.60;99.90;;;;;;4977793;28;20026;-77
2023/03/15 05:13:05;;;;;;;7.50;3.92;;;1.60;99.90;;;;;;4977787;28;20090;-78
2023/03/15 05:15:30;;;;;;;5.13;3.60;;;1.60;99.90;;;;;;4977507;28;20033;-77
2023/03/15 05:17:56;;;;;;;8.38;3.72;;;1.60;99.90;;;;;;4978156;28;20039;-77
2023/03/15 05:20:22;;;;;;;6.22;3.78;;;1.60;99.90;;;;;;4985799;28;20023;-77
2023/03/15 05:22:48;;;;;;;8.80;3.63;;;1.60;99.90;;;;;;4980512;28;20073;-76
2023/03/15 05:25:14;;;;;;;437.30;144.55;;;1.60;99.90;;;;;;4976285;28;20027;-77
2023/03/15 05:27:40;;;;;;;126.90;47.17;;;1.60;99.90;;;;;;4976189;28;20027;-77
2023/03/15 05:30:07;;;;;;;223.30;70.32;;;1.60;99.90;;;;;;4976250;28;20015;-77
2023/03/15 05:32:33;;;;;;;231.00;78.40;;;1.50;99.90;;;;;;4976941;28;20035;-81
2023/03/15 05:35:00;;;;;;;549.45;203.88;;;1.50;99.90;;;;;;4984113;28;20085;-80
2023/03/15 05:37:26;;;;;;;345.50;109.25;;;1.50;99.90;;;;;;4990720;28;20184;-80
2023/03/15 05:39:52;;;;;;;279.65;92.55;;;1.50;99.90;;;;;;4996639;28;20488;-77
2023/03/15 05:42:24;;;;;;;464.27;171.00;;;1.50;99.90;;;;;;4989224;28;20027;-78
2023/03/15 05:44:51;;;;;;;602.67;229.70;;;1.60;99.90;;;;;;4976951;28;20026;-79
2023/03/15 05:47:17;;;;;;;667.70;255.35;;;1.60;99.90;;;;;;4976210;28;20378;-79
2023/03/15 05:49:42;;;;;;;535.88;196.77;;;1.70;99.90;;;;;;4995592;28;20039;-78
2023/03/15 05:52:08;;;;;;;769.80;287.15;;;1.60;99.90;;;;;;4993910;28;20030;-78
2023/03/15 05:54:34;;;;;;;727.65;285.20;;;1.60;99.90;;;;;;4987138;28;20023;-78
2023/03/15 05:56:59;;;;;;;310.98;101.15;;;1.60;99.90;;;;;;4979157;28;20027;-79
2023/03/15 05:59:25;;;;;;;529.95;183.55;;;1.60;99.90;;;;;;4984007;28;20031;-77
2023/03/15 06:01:51;;;;;;;144.57;45.05;;;1.50;99.90;;;;;;4976715;28;20469;-78
2023/03/15 06:04:16;;;;;;;894.00;346.33;;;1.50;99.90;;;;;;4976826;28;20031;-78
2023/03/15 06:06:42;;;;;;;408.02;129.82;;;1.60;99.90;;;;;;4975449;28;20027;-80
2023/03/15 06:09:07;;;;;;;218.45;65.45;;;1.70;99.90;;;;;;4975511;28;20027;-80
2023/03/15 06:11:33;;;;;;;57.90;17.45;;;1.60;99.90;;;;;;4994606;28;20037;-80
2023/03/15 06:13:58;;;;;;;185.73;61.42;;;1.50;99.90;;;;;;4990593;28;20046;-80
2023/03/15 06:16:24;;;;;;;187.73;57.17;;;1.60;99.90;;;;;;4976505;28;20023;-81
2023/03/15 06:18:50;;;;;;;210.48;61.55;;;1.50;99.90;;;;;;4976650;28;20461;-80
2023/03/15 06:21:15;;;;;;;502.15;157.15;;;1.60;99.90;;;;;;4975052;28;20465;-80
2023/03/15 06:23:41;;;;;;;150.65;48.92;;;1.60;99.90;;;;;;4976451;28;20110;-80
2023/03/15 06:26:07;;;;;;;391.23;127.35;;;1.60;99.90;;;;;;4975178;28;20190;-80
2023/03/15 06:28:33;;;;;;;244.15;71.30;;;1.70;99.90;;;;;;4974606;28;20027;-79
2023/03/15 06:31:07;;;;;;;282.10;86.47;;;1.60;99.90;;;;;;4974990;28;20380;-78
2023/03/15 06:33:32;;;;;;;127.05;44.55;;;1.70;99.90;;;;;;4975985;28;20026;-78
2023/03/15 06:35:58;;;;;;;211.70;67.63;;;1.70;99.90;;;;;;4976064;28;20023;-77
2023/03/15 06:38:24;;;;;;;148.07;46.30;;;1.70;99.90;;;;;;4975710;28;20524;-77
2023/03/15 06:40:49;;;;;;;30.33;11.10;;;1.70;99.90;;;;;;4974398;28;20015;-77
2023/03/15 06:43:18;;;;;;;122.63;39.78;;;1.70;98.20;;;;;;4973998;28;20122;-79
2023/03/15 06:45:45;;;;;;;159.65;55.25;;;1.70;99.90;;;;;;4973456;28;20437;-77
2023/03/15 06:48:11;;;;;;;209.85;70.47;;;1.80;99.90;;;;;;4974389;28;20413;-79
2023/03/15 06:50:37;;;;;;;20.75;8.57;;;1.70;99.70;;;;;;4975769;28;20085;-80
2023/03/15 06:53:02;;;;;;;35.10;12.05;;;1.70;98.50;;;;;;4977146;28;20488;-79
2023/03/15 06:55:28;;;;;;;183.57;63.47;;;1.80;99.20;;;;;;4974521;28;20031;-80
2023/03/15 06:57:53;;;;;;;84.22;29.23;;;1.80;99.60;;;;;;4974684;28;20058;-79
2023/03/15 07:00:19;;;;;;;132.13;49.85;;;1.90;99.90;;;;;;4974386;28;20085;-79
2023/03/15 07:02:45;;;;;;;86.38;31.63;;;2.00;99.20;;;;;;4974247;28;20097;-79
2023/03/15 07:05:10;;;;;;;46.03;18.20;;;2.00;97.70;;;;;;4974275;28;20019;-79
2023/03/15 07:07:36;;;;;;;262.67;98.40;;;2.00;96.80;;;;;;4975438;28;20023;-79
2023/03/15 07:10:02;;;;;;;34.53;14.27;;;2.00;96.90;;;;;;4973670;28;20027;-79
2023/03/15 07:12:27;;;;;;;18.85;6.47;;;2.10;96.50;;;;;;4974046;28;20530;-77
2023/03/15 07:14:53;;;;;;;25.75;11.70;;;2.10;94.20;;;;;;4975497;28;20049;-79
2023/03/15 07:17:18;;;;;;;14.98;5.85;;;2.20;93.60;;;;;;4975271;28;20076;-80
2023/03/15 07:19:44;;;;;;;12.73;6.70;;;2.10;93.40;;;;;;4987687;28;20396;-79
2023/03/15 07:22:09;;;;;;;12.88;4.75;;;2.10;93.40;;;;;;4993911;28;20547;-79
2023/03/15 07:24:35;;;;;;;27.70;14.63;;;2.00;93.60;;;;;;4993359;28;20476;-80
2023/03/15 07:27:01;;;;;;;20.70;9.73;;;2.00;94.10;;;;;;4993279;28;20045;-80
2023/03/15 07:29:26;;;;;;;38.72;15.70;;;2.00;94.70;;;;;;4993291;28;20022;-79
2023/03/15 07:31:52;;;;;;;19.60;9.52;;;2.10;96.10;;;;;;4981561;28;20053;-80
2023/03/15 07:34:17;;;;;;;16.13;7.72;;;2.20;94.30;;;;;;4975070;28;20058;-77
2023/03/15 07:36:43;;;;;;;53.03;23.55;;;2.30;94.40;;;;;;4973959;28;20045;-77
2023/03/15 07:39:09;;;;;;;27.73;12.85;;;2.30;91.00;;;;;;4974031;28;20054;-79
2023/03/15 07:41:35;;;;;;;53.35;22.83;;;2.40;91.40;;;;;;4975001;28;20089;-79
2023/03/15 07:44:01;;;;;;;27.65;12.02;;;2.40;88.80;;;;;;4975088;28;20077;-79
2023/03/15 07:46:26;;;;;;;62.17;26.77;;;2.50;89.70;;;;;;4974754;28;20417;-80
2023/03/15 07:48:52;;;;;;;33.63;15.60;;;2.50;89.40;;;;;;4973694;28;20059;-79
2023/03/15 07:51:17;;;;;;;31.10;14.07;;;2.50;87.40;;;;;;4975630;28;20039;-79
2023/03/15 07:53:43;;;;;;;34.83;16.42;;;2.50;86.80;;;;;;4993261;28;20143;-77
2023/03/15 07:56:09;;;;;;;25.33;10.85;;;2.60;87.10;;;;;;4993060;28;20025;-79
2023/03/15 07:58:34;;;;;;;30.23;14.52;;;2.50;86.20;;;;;;4994366;28;20041;-79
2023/03/15 08:01:00;;;;;;;15.52;6.13;;;2.60;84.60;;;;;;4992844;28;20046;-79
2023/03/15 08:03:26;;;;;;;29.25;14.77;;;2.50;81.70;;;;;;4992889;28;20050;-78
2023/03/15 08:05:52;;;;;;;17.75;6.82;;;2.60;81.60;;;;;;4992833;28;20109;-77
2023/03/15 08:08:18;;;;;;;16.40;5.57;;;2.60;81.60;;;;;;4992854;28;20061;-77
2023/03/15 08:10:44;;;;;;;12.18;5.53;;;2.60;81.70;;;;;;4993932;28;20058;-78
2023/03/15 08:13:10;;;;;;;20.95;10.30;;;2.60;81.70;;;;;;4992770;28;20023;-79
2023/03/15 08:15:36;;;;;;;13.95;7.63;;;2.70;81.50;;;;;;4993925;28;20045;-77
2023/03/15 08:18:02;;;;;;;13.73;4.85;;;2.70;79.10;;;;;;4992802;28;20018;-77
2023/03/15 08:20:28;;;;;;;14.60;7.20;;;2.80;78.90;;;;;;4992667;28;20466;-80
2023/03/15 08:22:53;;;;;;;10.85;5.80;;;2.70;77.80;;;;;;4991886;28;20480;-77
2023/03/15 08:25:22;;;;;;;11.77;4.80;;;2.90;77.90;;;;;;4992640;28;20033;-79
2023/03/15 08:27:49;;;;;;;6.78;4.80;;;2.90;76.80;;;;;;4992487;28;20084;-77
2023/03/15 08:30:16;;;;;;;11.68;7.03;;;3.10;78.30;;;;;;4992842;28;20023;-78
2023/03/15 08:32:44;;;;;;;10.48;3.95;;;3.20;78.00;;;;;;4992478;28;20089;-79
2023/03/15 08:35:11;;;;;;;7.55;3.95;;;3.20;74.90;;;;;;4994140;28;20031;-79
2023/03/15 08:37:37;;;;;;;10.38;4.80;;;3.20;74.70;;;;;;4993779;28;20022;-79
2023/03/15 08:40:10;;;;;;;8.73;4.07;;;3.30;76.00;;;;;;4989145;28;20033;-79
2023/03/15 08:42:37;;;;;;;5.95;3.75;;;3.30;76.20;;;;;;4973048;28;20045;-79
2023/03/15 08:45:07;;;;;;;6.63;5.18;;;3.20;75.00;;;;;;4973364;28;20027;-79
2023/03/15 08:47:34;;;;;;;6.75;3.28;;;3.20;75.00;;;;;;4972801;28;20146;-78
2023/03/15 08:50:00;;;;;;;5.78;3.30;;;3.20;74.70;;;;;;4974343;28;20137;-77
2023/03/15 08:52:26;;;;;;;8.68;3.70;;;3.10;74.60;;;;;;4972898;28;20038;-77
2023/03/15 08:54:52;;;;;;;12.55;3.78;;;3.10;73.90;;;;;;4973223;28;20019;-77
2023/03/15 08:57:17;;;;;;;6.97;2.83;;;3.20;75.10;;;;;;4972848;28;20069;-79
2023/03/15 08:59:44;;;;;;;10.32;3.80;;;3.10;74.40;;;;;;4974157;28;20022;-79
2023/03/15 09:02:11;;;;;;;8.43;3.85;;;3.00;74.10;;;;;;4972937;28;20026;-77
2023/03/15 09:04:37;;;;;;;5.57;3.30;;;3.10;73.40;;;;;;4974158;28;20022;-79
2023/03/15 09:07:02;;;;;;;6.53;2.45;;;3.10;72.90;;;;;;4972842;28;20063;-77
2023/03/15 09:09:28;;;;;;;7.57;2.75;;;3.10;71.50;;;;;;4972879;28;20045;-77
2023/03/15 09:11:55;;;;;;;5.55;2.70;;;3.30;72.10;;;;;;4981943;28;20124;-80
2023/03/15 09:14:20;;;;;;;4.68;2.38;;;3.40;69.30;;;;;;4973815;28;20416;-80
2023/03/15 09:16:46;;;;;;;4.82;2.70;;;3.40;70.80;;;;;;4982395;28;20030;-80
2023/03/15 09:19:12;;;;;;;11.48;3.25;;;3.50;71.30;;;;;;4991110;28;20033;-80
2023/03/15 09:21:38;;;;;;;9.10;3.00;;;3.60;71.20;;;;;;4990353;28;20026;-80
2023/03/15 09:24:04;;;;;;;6.75;2.78;;;3.60;69.20;;;;;;4991335;28;20029;-80
2023/03/15 09:26:29;;;;;;;3.80;3.30;;;3.50;69.70;;;;;;4988331;28;20053;-80
2023/03/15 09:28:55;;;;;;;7.88;2.97;;;3.50;70.60;;;;;;4985895;28;20077;-80
2023/03/15 09:31:20;;;;;;;8.40;2.78;;;3.60;68.10;;;;;;4971756;28;20521;-80
2023/03/15 09:33:46;;;;;;;2.85;2.60;;;3.70;68.20;;;;;;4986863;28;20027;-80
2023/03/15 09:36:12;;;;;;;7.78;2.85;;;3.50;66.90;;;;;;4983781;28;20024;-80
2023/03/15 09:38:37;;;;;;;8.98;3.85;;;3.60;68.70;;;;;;4996007;28;20076;-79
2023/03/15 09:41:03;;;;;;;4.13;3.55;;;3.50;67.50;;;;;;4976750;28;20499;-80
2023/03/15 09:43:57;;;;;;;11.85;3.53;;;3.50;66.80;;;;;;4975186;28;20019;-80
2023/03/15 09:46:31;;;;;;;5.03;2.75;;;3.70;67.60;;;;;;4992845;28;20101;-80
2023/03/15 09:49:30;;;;;;;5.80;2.95;;;3.60;67.60;;;;;;4978108;28;20051;-80
2023/03/15 09:52:00;;;;;;;6.13;2.53;;;3.80;68.40;;;;;;4980671;28;20121;-79
2023/03/15 09:54:40;;;;;;;3.38;2.22;;;3.90;68.10;;;;;;4996211;28;20057;-79
2023/03/15 09:57:17;;;;;;;7.25;2.90;;;3.90;66.90;;;;;;4993185;28;20031;-80
2023/03/15 09:59:48;;;;;;;6.45;2.80;;;3.70;66.20;;;;;;4976781;28;20018;-78
2023/03/15 10:02:30;;;;;;;6.75;3.45;;;3.80;64.90;;;;;;4975710;28;20113;-79
2023/03/15 10:05:10;;;;;;;11.70;3.00;;;3.50;65.80;;;;;;4975367;28;20080;-79
2023/03/15 10:07:36;;;;;;;3.58;2.72;;;3.40;66.10;;;;;;4975470;28;20031;-77
2023/03/15 10:10:05;;;;;;;4.97;2.72;;;3.40;66.20;;;;;;4976949;28;20101;-79
2023/03/15 10:12:40;;;;;;;7.70;3.05;;;3.50;66.50;;;;;;4976540;28;20039;-79
2023/03/15 10:15:14;;;;;;;4.95;3.15;;;3.60;66.40;;;;;;4975539;28;20035;-77
2023/03/15 10:17:46;;;;;;;7.53;3.00;;;3.50;65.60;;;;;;4975497;28;20030;-77
2023/03/15 10:20:17;;;;;;;6.63;2.88;;;3.60;66.10;;;;;;4976780;28;20081;-77
2023/03/15 10:22:46;;;;;;;5.28;3.00;;;3.70;66.40;;;;;;4976761;28;20102;-79
2023/03/15 10:25:25;;;;;;;13.90;3.58;;;3.60;65.20;;;;;;4975287;28;20461;-77
2023/03/15 10:28:01;;;;;;;14.27;3.83;;;3.60;65.60;;;;;;4976492;28;20061;-78
2023/03/15 10:30:32;;;;;;;10.52;3.63;;;3.60;64.90;;;;;;4975584;28;20495;-80
2023/03/15 10:33:00;;;;;;;5.38;2.85;;;3.80;65.20;;;;;;4975352;28;20156;-77
2023/03/15 10:35:26;;;;;;;6.30;3.13;;;3.90;64.20;;;;;;4976309;28;20029;-80
2023/03/15 10:37:52;;;;;;;7.28;2.00;;;3.90;63.80;;;;;;4974925;28;20019;-80
2023/03/15 10:40:41;;;;;;;5.57;1.95;;;3.80;62.30;;;;;;4975116;28;20077;-79
2023/03/15 10:43:35;;;;;;;3.80;2.08;;;3.80;60.10;;;;;;4975380;28;20027;-77
2023/03/15 10:46:04;;;;;;;4.70;2.85;;;3.80;61.00;;;;;;4974006;28;20027;-80
2023/03/15 10:48:32;;;;;;;8.52;2.47;;;3.80;61.00;;;;;;4974614;28;20042;-79
2023/03/15 10:51:22;;;;;;;5.93;2.20;;;3.90;61.20;;;;;;4974614;28;20473;-80
2023/03/15 10:54:17;;;;;;;5.20;2.55;;;4.10;61.40;;;;;;4967906;28;20062;-80
2023/03/15 10:56:50;;;;;;;6.60;2.55;;;4.00;60.80;;;;;;4975765;28;20575;-80
2023/03/15 10:59:24;;;;;;;7.32;2.53;;;3.80;59.90;;;;;;4979677;28;20400;-80
2023/03/15 11:02:06;;;;;;;2.65;2.08;;;3.90;61.00;;;;;;4979050;28;20019;-80
2023/03/15 11:04:33;;;;;;;6.07;2.45;;;4.00;61.50;;;;;;4982387;28;20109;-80
2023/03/15 11:07:06;;;;;;;7.03;3.22;;;3.90;60.90;;;;;;4982857;28;20026;-77
2023/03/15 11:09:44;;;;;;;5.22;2.50;;;4.10;61.10;;;;;;4982117;28;20066;-77
2023/03/15 11:12:19;;;;;;;5.50;3.03;;;4.10;60.50;;;;;;4973879;28;20573;-79
2023/03/15 11:14:48;;;;;;;3.60;2.03;;;4.20;60.40;;;;;;4981416;28;20084;-78
2023/03/15 11:17:22;;;;;;;6.68;2.55;;;4.20;59.70;;;;;;4984807;28;20026;-80
2023/03/15 11:19:58;;;;;;;7.47;2.70;;;4.20;59.40;;;;;;4992215;28;20623;-79
2023/03/15 11:22:50;;;;;;;4.45;1.80;;;4.10;59.20;;;;;;4974032;28;20042;-79
2023/03/15 11:25:17;;;;;;;4.30;2.00;;;4.10;58.60;;;;;;4980105;28;20069;-81
2023/03/15 11:27:56;;;;;;;4.85;2.45;;;4.20;58.90;;;;;;4978122;28;20034;-79
2023/03/15 11:30:40;;;;;;;6.20;2.30;;;4.10;58.40;;;;;;4979849;28;20489;-80
2023/03/15 11:33:08;;;;;;;4.63;2.00;;;4.30;59.30;;;;;;4992849;28;20403;-80
2023/03/15 11:35:48;;;;;;;5.28;2.72;;;4.30;58.80;;;;;;4992479;28;20070;-79
2023/03/15 11:38:25;;;;;;;8.80;4.50;;;4.40;59.50;;;;;;4992244;28;20033;-79
2023/03/15 11:40:55;;;;;;;5.85;2.75;;;4.40;59.10;;;;;;4992376;28;20369;-80
2023/03/15 11:43:28;;;;;;;10.82;4.40;;;4.40;59.10;;;;;;4992506;28;20030;-79
2023/03/15 11:45:58;;;;;;;3.38;2.38;;;4.50;58.50;;;;;;4992697;28;20121;-80
2023/03/15 11:48:41;;;;;;;5.07;2.50;;;4.40;57.50;;;;;;4986494;28;20041;-80
2023/03/15 11:51:10;;;;;;;6.88;2.78;;;4.40;57.90;;;;;;4975456;28;20042;-80
2023/03/15 11:53:44;;;;;;;5.00;2.90;;;4.30;58.90;;;;;;4980678;28;20010;-80
2023/03/15 11:56:44;;;;;;;8.35;3.20;;;4.20;58.10;;;;;;4978456;28;20757;-80
2023/03/15 11:59:20;;;;;;;7.30;2.70;;;4.20;58.80;;;;;;4979336;28;20021;-80
2023/03/15 12:01:50;;;;;;;5.97;2.95;;;4.20;58.90;;;;;;4984132;28;20047;-77
2023/03/15 12:04:24;;;;;;;8.10;4.40;;;4.30;59.90;;;;;;4988035;28;20113;-80
2023/03/15 12:06:52;;;;;;;13.80;4.85;;;4.40;60.10;;;;;;4973003;28;20078;-79
2023/03/15 12:09:54;;;;;;;5.18;2.67;;;4.40;59.50;;;;;;4980721;28;20030;-80
2023/03/15 12:12:25;;;;;;;7.00;3.47;;;4.50;59.40;;;;;;5008912;28;20030;-80
2023/03/15 12:15:04;;;;;;;15.32;5.28;;;4.40;58.70;;;;;;4992693;28;20019;-80
2023/03/15 12:17:29;;;;;;;17.27;7.43;;;4.30;59.60;;;;;;4992730;28;20396;-78
2023/03/15 12:19:59;;;;;;;6.55;4.00;;;4.30;59.40;;;;;;4993953;28;20037;-79
2023/03/15 12:22:31;;;;;;;9.00;4.10;;;4.20;58.80;;;;;;4993168;28;20104;-78
2023/03/15 12:25:03;;;;;;;14.05;6.80;;;4.30;59.30;;;;;;4994226;28;20026;-79
2023/03/15 12:27:29;;;;;;;30.20;9.33;;;4.40;59.80;;;;;;4994076;28;20123;-78
2023/03/15 12:30:00;;;;;;;39.08;15.63;;;4.30;60.00;;;;;;4993558;28;20297;-80
2023/03/15 12:32:28;;;;;;;38.50;15.40;;;4.30;60.90;;;;;;4993470;28;20034;-80
2023/03/15 12:34:57;;;;;;;13.32;4.80;;;4.40;61.10;;;;;;4991926;28;20053;-78
2023/03/15 12:37:30;;;;;;;10.60;3.92;;;4.60;59.60;;;;;;4991751;28;20118;-78
2023/03/15 12:40:21;;;;;;;33.25;12.13;;;4.70;60.00;;;;;;4990553;28;20495;-79
2023/03/15 12:42:47;;;;;;;94.82;39.10;;;4.70;60.60;;;;;;4999660;28;20030;-79
2023/03/15 12:45:15;;;;;;;93.47;38.03;;;4.80;60.70;;;;;;4991065;28;20031;-80
2023/03/15 12:47:50;;;;;;;16.58;7.15;;;4.80;59.70;;;;;;4991055;28;20052;-79
2023/03/15 12:50:37;;;;;;;111.28;37.90;;;4.90;59.50;;;;;;4992581;28;20024;-79
2023/03/15 12:53:38;;;;;;;53.95;22.75;;;4.90;59.30;;;;;;4992405;28;20046;-80
2023/03/15 12:56:34;;;;;;;99.43;46.00;;;4.70;59.10;;;;;;5001244;28;20045;-79